sensor_id;sensor_type;location;lat;lon;timestamp;P1;durP1;ratioP1;P2;durP2;ratioP2
479;SDS011;226;48.606;9.096;2022-12-05T00:02:29;10.40;;;7.10;;
479;SDS011;226;48.606;9.096;2022-12-05T00:04:58;12.03;;;6.33;;
479;SDS011;226;48.606;9.096;2022-12-05T00:07:27;13.17;;;6.03;;
479;SDS011;226;48.606;9.096;2022-12-05T00:09:56;28.53;;;7.73;;
479;SDS011;226;48.606;9.096;2022-12-05T00:12:25;7.53;;;4.63;;
479;SDS011;226;48.606;9.096;2022-12-05T00:14:55;11.43;;;6.07;;
479;SDS011;226;48.606;9.096;2022-12-05T00:17:24;18.90;;;5.50;;
479;SDS011;226;48.606;9.096;2022-12-05T00:19:54;21.23;;;8.33;;
479;SDS011;226;48.606;9.096;2022-12-05T00:22:24;22.83;;;8.40;;
479;SDS011;226;48.606;9.096;2022-12-05T00:24:53;15.53;;;6.57;;
479;SDS011;226;48.606;9.096;2022-12-05T00:27:22;17.00;;;7.60;;
479;SDS011;226;48.606;9.096;2022-12-05T00:29:51;19.10;;;8.20;;
479;SDS011;226;48.606;9.096;2022-12-05T00:32:21;8.77;;;7.47;;
479;SDS011;226;48.606;9.096;2022-12-05T00:34:50;16.30;;;5.87;;
479;SDS011;226;48.606;9.096;2022-12-05T00:37:21;12.80;;;6.87;;
479;SDS011;226;48.606;9.096;2022-12-05T00:39:50;15.33;;;8.13;;
479;SDS011;226;48.606;9.096;2022-12-05T00:42:19;12.57;;;6.17;;
479;SDS011;226;48.606;9.096;2022-12-05T00:44:49;18.23;;;8.07;;
479;SDS011;226;48.606;9.096;2022-12-05T00:47:18;12.00;;;7.37;;
479;SDS011;226;48.606;9.096;2022-12-05T00:49:47;12.33;;;5.30;;
479;SDS011;226;48.606;9.096;2022-12-05T00:52:16;14.83;;;7.13;;
479;SDS011;226;48.606;9.096;2022-12-05T00:54:46;7.83;;;4.47;;
479;SDS011;226;48.606;9.096;2022-12-05T00:57:15;14.77;;;5.80;;
479;SDS011;226;48.606;9.096;2022-12-05T00:59:44;16.13;;;7.00;;
479;SDS011;226;48.606;9.096;2022-12-05T01:02:13;17.67;;;6.27;;
479;SDS011;226;48.606;9.096;2022-12-05T01:04:43;12.40;;;7.00;;
479;SDS011;226;48.606;9.096;2022-12-05T01:07:12;6.67;;;4.30;;
479;SDS011;226;48.606;9.096;2022-12-05T01:09:41;13.17;;;7.23;;
479;SDS011;226;48.606;9.096;2022-12-05T01:12:11;20.27;;;7.03;;
479;SDS011;226;48.606;9.096;2022-12-05T01:14:40;12.07;;;5.30;;
479;SDS011;226;48.606;9.096;2022-12-05T01:17:09;9.97;;;6.67;;
479;SDS011;226;48.606;9.096;2022-12-05T01:19:38;13.47;;;7.20;;
479;SDS011;226;48.606;9.096;2022-12-05T01:22:08;19.33;;;8.07;;
479;SDS011;226;48.606;9.096;2022-12-05T01:24:37;25.77;;;8.23;;
479;SDS011;226;48.606;9.096;2022-12-05T01:27:06;21.47;;;7.23;;
479;SDS011;226;48.606;9.096;2022-12-05T01:29:36;17.67;;;7.97;;
479;SDS011;226;48.606;9.096;2022-12-05T01:32:05;13.77;;;6.80;;
479;SDS011;226;48.606;9.096;2022-12-05T01:34:34;14.93;;;5.13;;
479;SDS011;226;48.606;9.096;2022-12-05T01:37:03;11.70;;;6.17;;
479;SDS011;226;48.606;9.096;2022-12-05T01:39:32;14.57;;;6.73;;
479;SDS011;226;48.606;9.096;2022-12-05T01:42:01;27.37;;;7.57;;
479;SDS011;226;48.606;9.096;2022-12-05T01:47:21;14.73;;;5.83;;
479;SDS011;226;48.606;9.096;2022-12-05T01:49:51;23.13;;;8.20;;
479;SDS011;226;48.606;9.096;2022-12-05T01:52:22;34.57;;;8.30;;
479;SDS011;226;48.606;9.096;2022-12-05T01:54:54;13.43;;;6.50;;
479;SDS011;226;48.606;9.096;2022-12-05T01:57:24;13.60;;;6.80;;
479;SDS011;226;48.606;9.096;2022-12-05T02:00:03;22.17;;;7.40;;
479;SDS011;226;48.606;9.096;2022-12-05T02:02:34;15.23;;;7.87;;
479;SDS011;226;48.606;9.096;2022-12-05T02:05:04;14.50;;;7.03;;
479;SDS011;226;48.606;9.096;2022-12-05T02:07:33;17.87;;;6.90;;
479;SDS011;226;48.606;9.096;2022-12-05T02:10:04;13.63;;;7.50;;
479;SDS011;226;48.606;9.096;2022-12-05T02:12:33;26.23;;;6.83;;
479;SDS011;226;48.606;9.096;2022-12-05T02:15:07;11.70;;;6.13;;
479;SDS011;226;48.606;9.096;2022-12-05T02:17:42;13.33;;;5.87;;
479;SDS011;226;48.606;9.096;2022-12-05T02:20:21;21.57;;;7.87;;
479;SDS011;226;48.606;9.096;2022-12-05T02:25:46;16.80;;;6.30;;
479;SDS011;226;48.606;9.096;2022-12-05T02:28:27;24.30;;;7.47;;
479;SDS011;226;48.606;9.096;2022-12-05T02:31:02;29.47;;;9.40;;
479;SDS011;226;48.606;9.096;2022-12-05T02:33:34;21.00;;;8.00;;
479;SDS011;226;48.606;9.096;2022-12-05T02:36:06;22.43;;;8.03;;
479;SDS011;226;48.606;9.096;2022-12-05T02:38:37;19.93;;;9.13;;
479;SDS011;226;48.606;9.096;2022-12-05T02:41:11;12.73;;;5.90;;
479;SDS011;226;48.606;9.096;2022-12-05T02:43:43;11.73;;;4.77;;
479;SDS011;226;48.606;9.096;2022-12-05T02:46:16;18.77;;;5.40;;
479;SDS011;226;48.606;9.096;2022-12-05T02:48:47;17.27;;;6.93;;
479;SDS011;226;48.606;9.096;2022-12-05T02:51:18;15.20;;;6.50;;
479;SDS011;226;48.606;9.096;2022-12-05T02:53:48;15.33;;;7.83;;
479;SDS011;226;48.606;9.096;2022-12-05T02:56:17;15.73;;;6.40;;
479;SDS011;226;48.606;9.096;2022-12-05T02:58:47;18.23;;;7.73;;
479;SDS011;226;48.606;9.096;2022-12-05T03:01:20;15.30;;;6.30;;
479;SDS011;226;48.606;9.096;2022-12-05T03:03:51;18.50;;;8.83;;
479;SDS011;226;48.606;9.096;2022-12-05T03:06:20;21.40;;;5.50;;
479;SDS011;226;48.606;9.096;2022-12-05T03:08:52;17.40;;;6.50;;
479;SDS011;226;48.606;9.096;2022-12-05T03:11:23;12.80;;;7.20;;
479;SDS011;226;48.606;9.096;2022-12-05T03:13:53;19.87;;;6.27;;
479;SDS011;226;48.606;9.096;2022-12-05T03:16:26;9.77;;;5.47;;
479;SDS011;226;48.606;9.096;2022-12-05T03:19:00;7.90;;;5.33;;
479;SDS011;226;48.606;9.096;2022-12-05T03:21:32;16.80;;;6.20;;
479;SDS011;226;48.606;9.096;2022-12-05T03:24:04;8.60;;;6.13;;
479;SDS011;226;48.606;9.096;2022-12-05T03:26:35;9.10;;;6.10;;
479;SDS011;226;48.606;9.096;2022-12-05T03:29:14;11.80;;;6.27;;
479;SDS011;226;48.606;9.096;2022-12-05T03:31:51;25.93;;;10.77;;
479;SDS011;226;48.606;9.096;2022-12-05T03:34:31;18.80;;;12.33;;
479;SDS011;226;48.606;9.096;2022-12-05T03:37:08;12.03;;;4.90;;
479;SDS011;226;48.606;9.096;2022-12-05T03:39:41;9.70;;;4.60;;
479;SDS011;226;48.606;9.096;2022-12-05T03:42:15;12.13;;;7.00;;
479;SDS011;226;48.606;9.096;2022-12-05T03:44:48;12.53;;;5.13;;
479;SDS011;226;48.606;9.096;2022-12-05T03:47:23;16.33;;;5.53;;
479;SDS011;226;48.606;9.096;2022-12-05T03:49:56;13.17;;;6.17;;
479;SDS011;226;48.606;9.096;2022-12-05T03:52:30;14.23;;;5.60;;
479;SDS011;226;48.606;9.096;2022-12-05T03:55:22;20.53;;;8.00;;
479;SDS011;226;48.606;9.096;2022-12-05T03:57:53;15.13;;;6.53;;
479;SDS011;226;48.606;9.096;2022-12-05T04:00:24;17.93;;;5.87;;
479;SDS011;226;48.606;9.096;2022-12-05T04:02:58;16.30;;;6.90;;
479;SDS011;226;48.606;9.096;2022-12-05T04:05:34;23.13;;;8.70;;
479;SDS011;226;48.606;9.096;2022-12-05T04:08:10;13.93;;;7.20;;
479;SDS011;226;48.606;9.096;2022-12-05T04:10:41;15.13;;;7.57;;
479;SDS011;226;48.606;9.096;2022-12-05T04:13:16;11.60;;;7.83;;
479;SDS011;226;48.606;9.096;2022-12-05T04:15:48;19.40;;;5.80;;
479;SDS011;226;48.606;9.096;2022-12-05T04:18:40;10.20;;;5.03;;
479;SDS011;226;48.606;9.096;2022-12-05T04:21:13;6.97;;;5.60;;
479;SDS011;226;48.606;9.096;2022-12-05T04:24:00;11.37;;;7.37;;
479;SDS011;226;48.606;9.096;2022-12-05T04:26:45;14.73;;;5.47;;
479;SDS011;226;48.606;9.096;2022-12-05T04:29:18;11.07;;;5.77;;
479;SDS011;226;48.606;9.096;2022-12-05T04:31:54;17.57;;;7.17;;
479;SDS011;226;48.606;9.096;2022-12-05T04:34:28;12.63;;;7.20;;
479;SDS011;226;48.606;9.096;2022-12-05T04:36:59;9.70;;;6.10;;
479;SDS011;226;48.606;9.096;2022-12-05T04:39:32;15.47;;;5.70;;
479;SDS011;226;48.606;9.096;2022-12-05T04:42:06;14.90;;;6.17;;
479;SDS011;226;48.606;9.096;2022-12-05T04:44:37;16.60;;;7.20;;
479;SDS011;226;48.606;9.096;2022-12-05T04:47:09;8.67;;;4.83;;
479;SDS011;226;48.606;9.096;2022-12-05T04:49:42;6.73;;;5.40;;
479;SDS011;226;48.606;9.096;2022-12-05T04:52:18;17.33;;;6.63;;
479;SDS011;226;48.606;9.096;2022-12-05T04:54:48;14.13;;;7.17;;
479;SDS011;226;48.606;9.096;2022-12-05T04:57:18;9.97;;;5.83;;
479;SDS011;226;48.606;9.096;2022-12-05T04:59:49;23.33;;;7.30;;
479;SDS011;226;48.606;9.096;2022-12-05T05:02:20;8.37;;;5.30;;
479;SDS011;226;48.606;9.096;2022-12-05T05:04:53;9.37;;;5.90;;
479;SDS011;226;48.606;9.096;2022-12-05T05:07:23;11.60;;;5.60;;
479;SDS011;226;48.606;9.096;2022-12-05T05:09:52;11.13;;;5.37;;
479;SDS011;226;48.606;9.096;2022-12-05T05:12:21;11.50;;;5.20;;
479;SDS011;226;48.606;9.096;2022-12-05T05:14:49;14.40;;;7.10;;
479;SDS011;226;48.606;9.096;2022-12-05T05:17:17;29.63;;;7.90;;
479;SDS011;226;48.606;9.096;2022-12-05T05:19:45;10.57;;;6.33;;
479;SDS011;226;48.606;9.096;2022-12-05T05:22:15;10.47;;;6.20;;
479;SDS011;226;48.606;9.096;2022-12-05T05:24:43;8.60;;;4.77;;
479;SDS011;226;48.606;9.096;2022-12-05T05:27:11;12.90;;;6.00;;
479;SDS011;226;48.606;9.096;2022-12-05T05:29:39;13.00;;;7.33;;
479;SDS011;226;48.606;9.096;2022-12-05T05:32:07;8.97;;;5.50;;
479;SDS011;226;48.606;9.096;2022-12-05T05:34:35;11.33;;;7.53;;
479;SDS011;226;48.606;9.096;2022-12-05T05:37:03;19.52;;;6.35;;
479;SDS011;226;48.606;9.096;2022-12-05T05:39:32;18.63;;;9.33;;
479;SDS011;226;48.606;9.096;2022-12-05T05:42:00;11.03;;;7.03;;
479;SDS011;226;48.606;9.096;2022-12-05T05:44:28;20.93;;;8.53;;
479;SDS011;226;48.606;9.096;2022-12-05T05:46:56;23.57;;;9.33;;
479;SDS011;226;48.606;9.096;2022-12-05T05:49:25;11.40;;;7.90;;
479;SDS011;226;48.606;9.096;2022-12-05T05:51:53;16.87;;;10.23;;
479;SDS011;226;48.606;9.096;2022-12-05T05:54:21;10.00;;;8.43;;
479;SDS011;226;48.606;9.096;2022-12-05T05:56:51;17.30;;;8.53;;
479;SDS011;226;48.606;9.096;2022-12-05T05:59:19;28.20;;;8.63;;
479;SDS011;226;48.606;9.096;2022-12-05T06:01:47;13.80;;;7.93;;
479;SDS011;226;48.606;9.096;2022-12-05T06:04:15;11.80;;;8.40;;
479;SDS011;226;48.606;9.096;2022-12-05T06:06:43;13.10;;;6.40;;
479;SDS011;226;48.606;9.096;2022-12-05T06:09:11;21.97;;;8.97;;
479;SDS011;226;48.606;9.096;2022-12-05T06:11:39;14.50;;;8.60;;
479;SDS011;226;48.606;9.096;2022-12-05T06:14:09;9.67;;;6.90;;
479;SDS011;226;48.606;9.096;2022-12-05T06:16:37;11.37;;;5.07;;
479;SDS011;226;48.606;9.096;2022-12-05T06:19:05;14.00;;;7.90;;
479;SDS011;226;48.606;9.096;2022-12-05T06:21:33;11.40;;;6.53;;
479;SDS011;226;48.606;9.096;2022-12-05T06:24:01;15.00;;;6.93;;
479;SDS011;226;48.606;9.096;2022-12-05T06:26:29;7.57;;;6.33;;
479;SDS011;226;48.606;9.096;2022-12-05T06:28:57;9.33;;;7.20;;
479;SDS011;226;48.606;9.096;2022-12-05T06:31:27;13.93;;;7.40;;
479;SDS011;226;48.606;9.096;2022-12-05T06:33:58;22.87;;;8.33;;
479;SDS011;226;48.606;9.096;2022-12-05T06:36:28;15.20;;;6.80;;
479;SDS011;226;48.606;9.096;2022-12-05T06:38:56;13.03;;;6.67;;
479;SDS011;226;48.606;9.096;2022-12-05T06:41:24;7.93;;;4.87;;
479;SDS011;226;48.606;9.096;2022-12-05T06:43:54;11.07;;;5.37;;
479;SDS011;226;48.606;9.096;2022-12-05T06:46:29;14.90;;;7.00;;
479;SDS011;226;48.606;9.096;2022-12-05T06:48:57;9.20;;;5.47;;
479;SDS011;226;48.606;9.096;2022-12-05T06:51:26;8.93;;;6.07;;
479;SDS011;226;48.606;9.096;2022-12-05T06:53:54;9.10;;;6.73;;
479;SDS011;226;48.606;9.096;2022-12-05T06:56:22;14.03;;;6.87;;
479;SDS011;226;48.606;9.096;2022-12-05T06:58:52;18.50;;;6.53;;
479;SDS011;226;48.606;9.096;2022-12-05T07:01:22;20.30;;;8.43;;
479;SDS011;226;48.606;9.096;2022-12-05T07:04:06;6.80;;;5.00;;
479;SDS011;226;48.606;9.096;2022-12-05T07:06:37;16.03;;;7.80;;
479;SDS011;226;48.606;9.096;2022-12-05T07:09:12;14.20;;;6.77;;
479;SDS011;226;48.606;9.096;2022-12-05T07:11:40;14.40;;;7.93;;
479;SDS011;226;48.606;9.096;2022-12-05T07:14:08;18.90;;;7.80;;
479;SDS011;226;48.606;9.096;2022-12-05T07:16:56;18.00;;;8.47;;
479;SDS011;226;48.606;9.096;2022-12-05T07:19:26;15.57;;;8.73;;
479;SDS011;226;48.606;9.096;2022-12-05T07:21:54;12.90;;;6.20;;
479;SDS011;226;48.606;9.096;2022-12-05T07:24:22;15.70;;;7.83;;
479;SDS011;226;48.606;9.096;2022-12-05T07:26:50;9.03;;;6.87;;
479;SDS011;226;48.606;9.096;2022-12-05T07:29:18;15.27;;;6.67;;
479;SDS011;226;48.606;9.096;2022-12-05T07:31:46;10.20;;;5.97;;
479;SDS011;226;48.606;9.096;2022-12-05T07:34:14;12.30;;;6.00;;
479;SDS011;226;48.606;9.096;2022-12-05T07:36:44;12.13;;;7.10;;
479;SDS011;226;48.606;9.096;2022-12-05T07:39:12;10.93;;;5.73;;
479;SDS011;226;48.606;9.096;2022-12-05T07:41:39;17.53;;;7.17;;
479;SDS011;226;48.606;9.096;2022-12-05T07:44:08;6.77;;;4.90;;
479;SDS011;226;48.606;9.096;2022-12-05T07:46:38;9.17;;;4.57;;
479;SDS011;226;48.606;9.096;2022-12-05T07:49:06;7.83;;;4.67;;
479;SDS011;226;48.606;9.096;2022-12-05T07:51:35;11.53;;;5.00;;
479;SDS011;226;48.606;9.096;2022-12-05T07:54:05;8.13;;;5.30;;
479;SDS011;226;48.606;9.096;2022-12-05T07:56:33;15.50;;;6.93;;
479;SDS011;226;48.606;9.096;2022-12-05T07:59:01;27.23;;;9.53;;
479;SDS011;226;48.606;9.096;2022-12-05T08:01:30;14.90;;;7.47;;
479;SDS011;226;48.606;9.096;2022-12-05T08:03:58;7.33;;;6.13;;
479;SDS011;226;48.606;9.096;2022-12-05T08:06:27;17.57;;;6.17;;
479;SDS011;226;48.606;9.096;2022-12-05T08:08:56;8.53;;;5.93;;
479;SDS011;226;48.606;9.096;2022-12-05T08:11:26;7.60;;;6.33;;
479;SDS011;226;48.606;9.096;2022-12-05T08:13:56;20.30;;;8.03;;
479;SDS011;226;48.606;9.096;2022-12-05T08:16:25;9.63;;;6.37;;
479;SDS011;226;48.606;9.096;2022-12-05T08:18:56;14.50;;;6.50;;
479;SDS011;226;48.606;9.096;2022-12-05T08:21:25;9.13;;;6.63;;
479;SDS011;226;48.606;9.096;2022-12-05T08:23:54;10.87;;;4.90;;
479;SDS011;226;48.606;9.096;2022-12-05T08:26:23;23.27;;;5.50;;
479;SDS011;226;48.606;9.096;2022-12-05T08:28:54;12.50;;;6.63;;
479;SDS011;226;48.606;9.096;2022-12-05T08:31:24;10.30;;;5.87;;
479;SDS011;226;48.606;9.096;2022-12-05T08:33:54;9.27;;;6.60;;
479;SDS011;226;48.606;9.096;2022-12-05T08:36:25;11.33;;;5.90;;
479;SDS011;226;48.606;9.096;2022-12-05T08:38:54;10.37;;;6.60;;
479;SDS011;226;48.606;9.096;2022-12-05T08:41:23;7.73;;;5.10;;
479;SDS011;226;48.606;9.096;2022-12-05T08:43:55;14.90;;;4.87;;
479;SDS011;226;48.606;9.096;2022-12-05T08:46:25;5.03;;;4.20;;
479;SDS011;226;48.606;9.096;2022-12-05T08:48:53;8.27;;;5.40;;
479;SDS011;226;48.606;9.096;2022-12-05T08:51:21;9.33;;;3.97;;
479;SDS011;226;48.606;9.096;2022-12-05T08:53:49;8.40;;;4.77;;
479;SDS011;226;48.606;9.096;2022-12-05T08:56:17;4.30;;;3.40;;
479;SDS011;226;48.606;9.096;2022-12-05T08:58:52;4.63;;;4.27;;
479;SDS011;226;48.606;9.096;2022-12-05T09:01:29;6.60;;;5.47;;
479;SDS011;226;48.606;9.096;2022-12-05T09:03:59;7.10;;;5.00;;
479;SDS011;226;48.606;9.096;2022-12-05T09:06:29;12.70;;;8.07;;
479;SDS011;226;48.606;9.096;2022-12-05T09:09:00;7.47;;;5.30;;
479;SDS011;226;48.606;9.096;2022-12-05T09:11:31;8.23;;;5.83;;
479;SDS011;226;48.606;9.096;2022-12-05T09:14:01;9.57;;;4.57;;
479;SDS011;226;48.606;9.096;2022-12-05T09:16:33;5.93;;;3.47;;
479;SDS011;226;48.606;9.096;2022-12-05T09:19:05;4.23;;;3.47;;
479;SDS011;226;48.606;9.096;2022-12-05T09:21:37;7.20;;;3.90;;
479;SDS011;226;48.606;9.096;2022-12-05T09:24:05;7.80;;;3.80;;
479;SDS011;226;48.606;9.096;2022-12-05T09:26:33;5.07;;;3.70;;
479;SDS011;226;48.606;9.096;2022-12-05T09:29:01;8.53;;;3.30;;
479;SDS011;226;48.606;9.096;2022-12-05T09:31:30;6.43;;;3.67;;
479;SDS011;226;48.606;9.096;2022-12-05T09:33:59;8.83;;;4.00;;
479;SDS011;226;48.606;9.096;2022-12-05T09:36:28;3.60;;;2.93;;
479;SDS011;226;48.606;9.096;2022-12-05T09:38:58;4.30;;;2.87;;
479;SDS011;226;48.606;9.096;2022-12-05T09:47:48;6.43;;;3.07;;
479;SDS011;226;48.606;9.096;2022-12-05T09:50:22;6.77;;;5.87;;
479;SDS011;226;48.606;9.096;2022-12-05T09:52:58;7.40;;;3.20;;
479;SDS011;226;48.606;9.096;2022-12-05T09:55:34;6.17;;;4.70;;
479;SDS011;226;48.606;9.096;2022-12-05T09:58:18;11.20;;;3.53;;
479;SDS011;226;48.606;9.096;2022-12-05T10:00:53;7.40;;;3.53;;
479;SDS011;226;48.606;9.096;2022-12-05T10:03:29;12.53;;;2.60;;
479;SDS011;226;48.606;9.096;2022-12-05T10:06:11;8.73;;;3.80;;
479;SDS011;226;48.606;9.096;2022-12-05T10:08:50;3.23;;;2.80;;
479;SDS011;226;48.606;9.096;2022-12-05T10:11:32;4.90;;;3.30;;
479;SDS011;226;48.606;9.096;2022-12-05T10:14:07;5.27;;;2.93;;
479;SDS011;226;48.606;9.096;2022-12-05T10:16:45;4.57;;;3.20;;
479;SDS011;226;48.606;9.096;2022-12-05T10:19:18;2.80;;;2.60;;
479;SDS011;226;48.606;9.096;2022-12-05T10:21:51;4.43;;;4.00;;
479;SDS011;226;48.606;9.096;2022-12-05T10:24:26;5.87;;;3.70;;
479;SDS011;226;48.606;9.096;2022-12-05T10:26:58;6.90;;;3.10;;
479;SDS011;226;48.606;9.096;2022-12-05T10:29:30;3.10;;;2.90;;
479;SDS011;226;48.606;9.096;2022-12-05T10:32:03;3.80;;;2.40;;
479;SDS011;226;48.606;9.096;2022-12-05T10:34:36;3.20;;;3.00;;
479;SDS011;226;48.606;9.096;2022-12-05T10:37:09;2.90;;;2.70;;
479;SDS011;226;48.606;9.096;2022-12-05T10:39:41;3.70;;;3.40;;
479;SDS011;226;48.606;9.096;2022-12-05T10:42:11;3.27;;;2.97;;
479;SDS011;226;48.606;9.096;2022-12-05T10:44:42;4.57;;;2.70;;
479;SDS011;226;48.606;9.096;2022-12-05T10:47:11;3.03;;;2.87;;
479;SDS011;226;48.606;9.096;2022-12-05T10:49:40;12.17;;;3.97;;
479;SDS011;226;48.606;9.096;2022-12-05T10:52:09;6.80;;;2.73;;
479;SDS011;226;48.606;9.096;2022-12-05T10:54:40;4.33;;;3.60;;
479;SDS011;226;48.606;9.096;2022-12-05T10:57:19;5.20;;;4.10;;
479;SDS011;226;48.606;9.096;2022-12-05T10:59:48;4.70;;;3.30;;
479;SDS011;226;48.606;9.096;2022-12-05T11:02:19;4.90;;;3.87;;
479;SDS011;226;48.606;9.096;2022-12-05T11:04:53;2.93;;;2.73;;
479;SDS011;226;48.606;9.096;2022-12-05T11:07:23;8.90;;;2.73;;
479;SDS011;226;48.606;9.096;2022-12-05T11:09:55;4.57;;;4.17;;
479;SDS011;226;48.606;9.096;2022-12-05T11:12:23;4.17;;;3.77;;
479;SDS011;226;48.606;9.096;2022-12-05T11:14:56;4.80;;;3.17;;
479;SDS011;226;48.606;9.096;2022-12-05T11:17:29;5.80;;;4.30;;
479;SDS011;226;48.606;9.096;2022-12-05T11:20:00;2.70;;;2.07;;
479;SDS011;226;48.606;9.096;2022-12-05T11:22:49;4.17;;;3.40;;
479;SDS011;226;48.606;9.096;2022-12-05T11:25:22;3.80;;;3.50;;
479;SDS011;226;48.606;9.096;2022-12-05T11:27:51;5.60;;;3.23;;
479;SDS011;226;48.606;9.096;2022-12-05T11:30:27;3.80;;;3.30;;
479;SDS011;226;48.606;9.096;2022-12-05T11:33:09;5.03;;;3.90;;
479;SDS011;226;48.606;9.096;2022-12-05T11:35:45;5.40;;;3.20;;
479;SDS011;226;48.606;9.096;2022-12-05T11:38:14;2.67;;;2.50;;
479;SDS011;226;48.606;9.096;2022-12-05T11:40:46;4.70;;;3.03;;
479;SDS011;226;48.606;9.096;2022-12-05T11:43:34;4.63;;;3.43;;
479;SDS011;226;48.606;9.096;2022-12-05T11:46:17;4.60;;;3.37;;
479;SDS011;226;48.606;9.096;2022-12-05T11:49:02;4.87;;;2.70;;
479;SDS011;226;48.606;9.096;2022-12-05T11:51:38;3.97;;;3.63;;
479;SDS011;226;48.606;9.096;2022-12-05T11:54:17;9.17;;;3.87;;
479;SDS011;226;48.606;9.096;2022-12-05T11:57:33;3.10;;;2.70;;
479;SDS011;226;48.606;9.096;2022-12-05T12:00:18;8.87;;;4.00;;
479;SDS011;226;48.606;9.096;2022-12-05T12:03:01;8.23;;;4.30;;
479;SDS011;226;48.606;9.096;2022-12-05T12:06:10;5.90;;;3.07;;
479;SDS011;226;48.606;9.096;2022-12-05T12:08:50;6.93;;;3.30;;
479;SDS011;226;48.606;9.096;2022-12-05T12:11:33;4.97;;;3.67;;
479;SDS011;226;48.606;9.096;2022-12-05T12:14:08;7.47;;;4.10;;
479;SDS011;226;48.606;9.096;2022-12-05T12:16:45;2.23;;;2.13;;
479;SDS011;226;48.606;9.096;2022-12-05T12:19:36;3.77;;;3.00;;
479;SDS011;226;48.606;9.096;2022-12-05T12:22:27;2.93;;;2.53;;
479;SDS011;226;48.606;9.096;2022-12-05T12:25:17;4.43;;;3.47;;
479;SDS011;226;48.606;9.096;2022-12-05T12:27:54;3.33;;;3.03;;
479;SDS011;226;48.606;9.096;2022-12-05T12:30:34;3.27;;;2.97;;
479;SDS011;226;48.606;9.096;2022-12-05T12:33:25;3.47;;;3.17;;
479;SDS011;226;48.606;9.096;2022-12-05T12:35:56;6.23;;;3.93;;
479;SDS011;226;48.606;9.096;2022-12-05T12:38:32;5.23;;;3.40;;
479;SDS011;226;48.606;9.096;2022-12-05T12:41:06;4.77;;;3.30;;
479;SDS011;226;48.606;9.096;2022-12-05T12:43:40;4.10;;;2.47;;
479;SDS011;226;48.606;9.096;2022-12-05T12:46:26;3.10;;;2.10;;
479;SDS011;226;48.606;9.096;2022-12-05T12:48:59;5.47;;;2.60;;
479;SDS011;226;48.606;9.096;2022-12-05T12:51:31;4.87;;;3.67;;
479;SDS011;226;48.606;9.096;2022-12-05T12:54:05;2.87;;;2.33;;
479;SDS011;226;48.606;9.096;2022-12-05T12:56:40;3.70;;;3.10;;
479;SDS011;226;48.606;9.096;2022-12-05T12:59:17;2.50;;;2.03;;
479;SDS011;226;48.606;9.096;2022-12-05T13:01:49;3.07;;;2.80;;
479;SDS011;226;48.606;9.096;2022-12-05T13:04:21;4.57;;;3.13;;
479;SDS011;226;48.606;9.096;2022-12-05T13:06:51;6.93;;;3.17;;
479;SDS011;226;48.606;9.096;2022-12-05T13:09:23;3.43;;;3.13;;
479;SDS011;226;48.606;9.096;2022-12-05T13:11:56;2.97;;;2.57;;
479;SDS011;226;48.606;9.096;2022-12-05T13:14:26;4.33;;;2.67;;
479;SDS011;226;48.606;9.096;2022-12-05T13:16:56;3.73;;;2.83;;
479;SDS011;226;48.606;9.096;2022-12-05T13:19:27;5.10;;;2.90;;
479;SDS011;226;48.606;9.096;2022-12-05T13:21:56;2.90;;;2.23;;
479;SDS011;226;48.606;9.096;2022-12-05T13:24:25;4.40;;;3.47;;
479;SDS011;226;48.606;9.096;2022-12-05T13:26:57;3.40;;;2.60;;
479;SDS011;226;48.606;9.096;2022-12-05T13:29:28;4.20;;;2.17;;
479;SDS011;226;48.606;9.096;2022-12-05T13:31:56;3.63;;;2.47;;
479;SDS011;226;48.606;9.096;2022-12-05T13:37:18;3.20;;;2.87;;
479;SDS011;226;48.606;9.096;2022-12-05T13:40:05;3.30;;;2.43;;
479;SDS011;226;48.606;9.096;2022-12-05T13:43:01;6.00;;;3.40;;
479;SDS011;226;48.606;9.096;2022-12-05T13:45:31;3.50;;;2.53;;
479;SDS011;226;48.606;9.096;2022-12-05T13:48:06;3.60;;;2.57;;
479;SDS011;226;48.606;9.096;2022-12-05T13:50:42;3.70;;;2.50;;
479;SDS011;226;48.606;9.096;2022-12-05T13:53:22;8.83;;;3.43;;
479;SDS011;226;48.606;9.096;2022-12-05T13:55:54;5.93;;;2.20;;
479;SDS011;226;48.606;9.096;2022-12-05T14:10:05;8.50;;;3.33;;
479;SDS011;226;48.606;9.096;2022-12-05T14:12:48;1.33;;;1.33;;
479;SDS011;226;48.606;9.096;2022-12-05T14:15:29;2.10;;;1.90;;
479;SDS011;226;48.606;9.096;2022-12-05T14:18:00;2.30;;;2.13;;
479;SDS011;226;48.606;9.096;2022-12-05T14:20:33;1.77;;;1.70;;
479;SDS011;226;48.606;9.096;2022-12-05T14:23:09;1.90;;;1.40;;
479;SDS011;226;48.606;9.096;2022-12-05T14:25:49;1.77;;;1.50;;
479;SDS011;226;48.606;9.096;2022-12-05T14:28:37;1.80;;;1.60;;
479;SDS011;226;48.606;9.096;2022-12-05T14:31:14;1.73;;;1.60;;
479;SDS011;226;48.606;9.096;2022-12-05T14:33:54;1.63;;;1.63;;
479;SDS011;226;48.606;9.096;2022-12-05T14:36:31;2.03;;;1.93;;
479;SDS011;226;48.606;9.096;2022-12-05T14:39:00;1.27;;;1.20;;
479;SDS011;226;48.606;9.096;2022-12-05T14:41:31;1.40;;;1.40;;
479;SDS011;226;48.606;9.096;2022-12-05T14:44:01;1.93;;;1.70;;
479;SDS011;226;48.606;9.096;2022-12-05T14:46:34;1.60;;;1.60;;
479;SDS011;226;48.606;9.096;2022-12-05T14:51:53;1.00;;;1.00;;
479;SDS011;226;48.606;9.096;2022-12-05T14:54:23;1.43;;;1.43;;
479;SDS011;226;48.606;9.096;2022-12-05T14:56:58;1.60;;;1.50;;
479;SDS011;226;48.606;9.096;2022-12-05T14:59:29;1.60;;;1.50;;
479;SDS011;226;48.606;9.096;2022-12-05T15:02:01;1.50;;;1.40;;
479;SDS011;226;48.606;9.096;2022-12-05T15:04:31;2.37;;;1.93;;
479;SDS011;226;48.606;9.096;2022-12-05T15:07:01;1.70;;;1.60;;
479;SDS011;226;48.606;9.096;2022-12-05T15:09:35;1.47;;;1.47;;
479;SDS011;226;48.606;9.096;2022-12-05T15:12:11;1.50;;;1.50;;
479;SDS011;226;48.606;9.096;2022-12-05T15:14:42;20.87;;;2.23;;
479;SDS011;226;48.606;9.096;2022-12-05T15:17:13;2.40;;;1.70;;
479;SDS011;226;48.606;9.096;2022-12-05T15:19:44;2.10;;;2.00;;
479;SDS011;226;48.606;9.096;2022-12-05T15:22:14;1.90;;;1.80;;
479;SDS011;226;48.606;9.096;2022-12-05T15:24:44;1.57;;;1.57;;
479;SDS011;226;48.606;9.096;2022-12-05T15:27:14;2.73;;;1.70;;
479;SDS011;226;48.606;9.096;2022-12-05T15:29:43;1.80;;;1.80;;
479;SDS011;226;48.606;9.096;2022-12-05T15:32:15;2.20;;;2.10;;
479;SDS011;226;48.606;9.096;2022-12-05T15:34:46;2.03;;;1.83;;
479;SDS011;226;48.606;9.096;2022-12-05T15:37:18;2.30;;;2.20;;
479;SDS011;226;48.606;9.096;2022-12-05T15:39:52;1.80;;;1.70;;
479;SDS011;226;48.606;9.096;2022-12-05T15:42:23;2.43;;;2.07;;
479;SDS011;226;48.606;9.096;2022-12-05T15:44:59;2.10;;;2.00;;
479;SDS011;226;48.606;9.096;2022-12-05T15:47:39;1.40;;;1.40;;
479;SDS011;226;48.606;9.096;2022-12-05T15:50:11;3.60;;;2.47;;
479;SDS011;226;48.606;9.096;2022-12-05T15:52:40;2.00;;;1.90;;
479;SDS011;226;48.606;9.096;2022-12-05T15:55:12;2.60;;;2.00;;
479;SDS011;226;48.606;9.096;2022-12-05T15:57:43;3.00;;;2.80;;
479;SDS011;226;48.606;9.096;2022-12-05T16:00:13;2.93;;;2.23;;
479;SDS011;226;48.606;9.096;2022-12-05T16:02:44;2.07;;;1.97;;
479;SDS011;226;48.606;9.096;2022-12-05T16:05:17;3.77;;;2.63;;
479;SDS011;226;48.606;9.096;2022-12-05T16:07:47;2.70;;;2.60;;
479;SDS011;226;48.606;9.096;2022-12-05T16:10:17;9.40;;;3.40;;
479;SDS011;226;48.606;9.096;2022-12-05T16:12:54;4.50;;;3.00;;
479;SDS011;226;48.606;9.096;2022-12-05T16:15:28;4.03;;;3.70;;
479;SDS011;226;48.606;9.096;2022-12-05T16:17:57;6.90;;;4.13;;
479;SDS011;226;48.606;9.096;2022-12-05T16:20:27;3.93;;;2.40;;
479;SDS011;226;48.606;9.096;2022-12-05T16:22:57;8.33;;;2.40;;
479;SDS011;226;48.606;9.096;2022-12-05T16:25:27;17.07;;;6.47;;
479;SDS011;226;48.606;9.096;2022-12-05T16:28:02;22.80;;;7.77;;
479;SDS011;226;48.606;9.096;2022-12-05T16:30:51;3.33;;;2.80;;
479;SDS011;226;48.606;9.096;2022-12-05T16:33:20;2.43;;;2.23;;
479;SDS011;226;48.606;9.096;2022-12-05T16:35:48;7.43;;;4.17;;
479;SDS011;226;48.606;9.096;2022-12-05T16:38:17;5.43;;;3.83;;
479;SDS011;226;48.606;9.096;2022-12-05T16:40:51;2.20;;;2.00;;